地図

経路データ

SID SEASON NUMBER BASIN SUBBASIN NAME ISO_TIME NATURE LAT LON WMO_WIND WMO_PRES WMO_AGENCY TRACK_TYPE DIST2LAND LANDFALL IFLAG USA_AGENCY USA_ATCF_ID USA_LAT USA_LON USA_RECORD USA_STATUS USA_WIND USA_PRES USA_SSHS USA_R34_NE USA_R34_SE USA_R34_SW USA_R34_NW USA_R50_NE USA_R50_SE USA_R50_SW USA_R50_NW USA_R64_NE USA_R64_SE USA_R64_SW USA_R64_NW USA_POCI USA_ROCI USA_RMW USA_EYE TOKYO_LAT TOKYO_LON TOKYO_GRADE TOKYO_WIND TOKYO_PRES TOKYO_R50_DIR TOKYO_R50_LONG TOKYO_R50_SHORT TOKYO_R30_DIR TOKYO_R30_LONG TOKYO_R30_SHORT TOKYO_LAND CMA_LAT CMA_LON CMA_CAT CMA_WIND CMA_PRES HKO_LAT HKO_LON HKO_CAT HKO_WIND HKO_PRES NEWDELHI_LAT NEWDELHI_LON NEWDELHI_GRADE NEWDELHI_WIND NEWDELHI_PRES NEWDELHI_CI NEWDELHI_DP NEWDELHI_POCI REUNION_LAT REUNION_LON REUNION_TYPE REUNION_WIND REUNION_PRES REUNION_TNUM REUNION_CI REUNION_RMW REUNION_R34_NE REUNION_R34_SE REUNION_R34_SW REUNION_R34_NW REUNION_R50_NE REUNION_R50_SE REUNION_R50_SW REUNION_R50_NW REUNION_R64_NE REUNION_R64_SE REUNION_R64_SW REUNION_R64_NW BOM_LAT BOM_LON BOM_TYPE BOM_WIND BOM_PRES BOM_TNUM BOM_CI BOM_RMW BOM_R34_NE BOM_R34_SE BOM_R34_SW BOM_R34_NW BOM_R50_NE BOM_R50_SE BOM_R50_SW BOM_R50_NW BOM_R64_NE BOM_R64_SE BOM_R64_SW BOM_R64_NW BOM_ROCI BOM_POCI BOM_EYE BOM_POS_METHOD BOM_PRES_METHOD NADI_LAT NADI_LON NADI_CAT NADI_WIND NADI_PRES WELLINGTON_LAT WELLINGTON_LON WELLINGTON_WIND WELLINGTON_PRES DS824_LAT DS824_LON DS824_STAGE DS824_WIND DS824_PRES TD9636_LAT TD9636_LON TD9636_STAGE TD9636_WIND TD9636_PRES TD9635_LAT TD9635_LON TD9635_WIND TD9635_PRES TD9635_ROCI NEUMANN_LAT NEUMANN_LON NEUMANN_CLASS NEUMANN_WIND NEUMANN_PRES MLC_LAT MLC_LON MLC_CLASS MLC_WIND MLC_PRES USA_GUST BOM_GUST BOM_GUST_PER REUNION_GUST REUNION_GUST_PER USA_SEAHGT USA_SEARAD_NE USA_SEARAD_SE USA_SEARAD_SW USA_SEARAD_NW STORM_SPEED STORM_DIR
1989335N05162 1989 126 WP MM NOT_NAMED 1989-12-01 06:00:00 NR 4.90000 161.500 main 1374 1306 O_________O___ jtwc_wp WP351989 4.90000 161.500 15 -1 4.90000 161.500 1 15 22 270
1989335N05162 1989 126 WP MM NOT_NAMED 1989-12-01 09:00:00 NR 4.90413 160.407 main 1298 1229 P_________P___ WP351989 4.90038 160.397 15 -1 4.90788 160.416 1 15 22 270
1989335N05162 1989 126 WP MM NOT_NAMED 1989-12-01 12:00:00 NR 4.90000 159.300 main 1222 1148 O_________O___ jtwc_wp WP351989 4.90000 159.300 15 -1 4.90000 159.300 1 15 22 269
1989335N05162 1989 126 WP MM NOT_NAMED 1989-12-01 15:00:00 NR 4.88464 158.171 main 1148 1079 P_________P___ WP351989 4.89978 158.208 15 -1 4.86949 158.134 1 15 23 269
1989335N05162 1989 126 WP MM NOT_NAMED 1989-12-01 18:00:00 NR 4.86951 157.029 main 1074 1011 O_________P___ jtwc_wp WP351989 4.90000 157.100 15 -1 4.83901 156.958 1 15 23 270
1989335N05162 1989 126 WP MM NOT_NAMED 1989-12-01 21:00:00 NR 4.86574 155.870 main 1011 960 P_________P___ WP351989 4.89255 155.913 15 -1 4.83894 155.828 1 15 22 271
1989335N05162 1989 126 WP MM NOT_NAMED 1989-12-02 00:00:00 NR 4.90000 154.800 main 955 918 O_________O___ jtwc_wp WP351989 4.90000 154.800 15 -1 4.90000 154.800 1 15 20 273
1989335N05162 1989 126 WP MM NOT_NAMED 1989-12-02 03:00:00 NR 4.96260 153.874 main 925 903 P_________P___ WP351989 4.88981 153.875 15 -1 5.03540 153.874 1 15 17 277
1989335N05162 1989 126 WP MM NOT_NAMED 1989-12-02 06:00:00 NR 5.11846 153.080 main 907 904 O_________P___ jtwc_wp WP351989 5.00000 153.100 15 -1 5.23693 153.061 1 15 16 287
1989335N05162 1989 126 WP MM NOT_NAMED 1989-12-02 09:00:00 NR 5.42124 152.368 main 922 920 P_________P___ WP351989 5.34746 152.368 15 -1 5.49501 152.367 1 15 15 298
1989335N05162 1989 126 WP MM NOT_NAMED 1989-12-02 12:00:00 NR 5.80000 151.800 main 957 956 O_________O___ jtwc_wp WP351989 5.80000 151.800 15 -1 5.80000 151.800 1 15 12 308
1989335N05162 1989 126 WP MM NOT_NAMED 1989-12-02 15:00:00 NR 6.16931 151.402 main 998 998 P_________P___ WP351989 6.20734 151.455 15 -1 6.13127 151.349 1 16 10 318
1989335N05162 1989 126 WP MM NOT_NAMED 1989-12-02 18:00:00 NR 6.55212 151.107 main 1042 1042 O_________P___ jtwc_wp WP351989 6.60000 151.200 15 -1 6.50425 151.015 1 17 10 322
1989335N05162 1989 126 WP MM NOT_NAMED 1989-12-02 21:00:00 NR 6.92508 150.799 main 1075 1075 P_________P___ WP351989 6.95001 150.850 17 -1 6.90015 150.749 1 18 10 321
1989335N05162 1989 126 WP MM NOT_NAMED 1989-12-03 00:00:00 NR 7.30000 150.500 main 1108 1108 O_________O___ jtwc_wp WP351989 7.30000 150.500 20 -1 7.30000 150.500 1 20 10 322
1989335N05162 1989 126 WP MM NOT_NAMED 1989-12-03 03:00:00 NR 7.69146 150.199 main 1141 1141 P_________P___ WP351989 7.69996 150.192 20 -1 7.68296 150.205 1 20 10 323
1989335N05162 1989 126 WP MM NOT_NAMED 1989-12-03 06:00:00 NR 8.08238 149.907 main 1176 1176 O_________P___ jtwc_wp WP351989 8.10000 149.900 20 -1 8.06476 149.915 1 20 10 323
1989335N05162 1989 126 WP MM NOT_NAMED 1989-12-03 09:00:00 NR 8.45207 149.612 main 1212 1210 P_________P___ WP351989 8.46496 149.607 20 -1 8.43919 149.617 1 20 9 320
1989335N05162 1989 126 WP MM NOT_NAMED 1989-12-03 12:00:00 NR 8.80000 149.300 main 1239 1239 O_________O___ jtwc_wp WP351989 8.80000 149.300 20 -1 8.80000 149.300 1 20 9 317
1989335N05162 1989 126 WP MM NOT_NAMED 1989-12-03 15:00:00 NR 9.12770 148.966 main 1267 1265 P_________P___ WP351989 9.09996 148.965 20 -1 9.15543 148.967 1 20 9 313
1989335N05162 1989 126 WP MM NOT_NAMED 1989-12-03 18:00:00 NR 9.44734 148.605 main 1295 1295 O_________P___ jtwc_wp WP351989 9.40000 148.600 20 -1 9.49468 148.610 1 20 10 312
1989335N05162 1989 126 WP MM NOT_NAMED 1989-12-03 21:00:00 NR 9.78452 148.219 main 1336 1336 P_________P___ WP351989 9.75745 148.215 20 -1 9.81160 148.223 1 20 10 309
1989335N05162 1989 126 WP MM NOT_NAMED 1989-12-04 00:00:00 NR 10.1000 147.800 main 1367 1367 O_________O___ jtwc_wp WP351989 10.1000 147.800 20 -1 10.1000 147.800 1 20 10 306
1989335N05162 1989 126 WP MM NOT_NAMED 1989-12-04 03:00:00 NR 10.3769 147.385 main 1400 1400 P_________P___ WP351989 10.3724 147.372 22 -1 10.3814 147.397 1 21 10 301
1989335N05162 1989 126 WP MM NOT_NAMED 1989-12-04 06:00:00 NR 10.6156 146.925 main 1423 1423 O_________P___ jtwc_wp WP351989 10.6000 146.900 25 -1 10.6311 146.950 1 22 11 296
1989335N05162 1989 126 WP MM NOT_NAMED 1989-12-04 09:00:00 NR 10.8313 146.419 main 1445 1445 P_________P___ WP351989 10.8222 146.410 25 -1 10.8404 146.428 1 23 12 289
1989335N05162 1989 126 WP MM NOT_NAMED 1989-12-04 12:00:00 NR 11.0000 145.800 main 1470 1470 O_________O___ jtwc_wp WP351989 11.0000 145.800 25 -1 11.0000 145.800 1 25 14 282
1989335N05162 1989 126 WP MM NOT_NAMED 1989-12-04 15:00:00 NR 11.1222 144.977 main 1489 1489 P_________P___ WP351989 11.1300 145.003 25 -1 11.1144 144.952 1 25 17 276
1989335N05162 1989 126 WP MM NOT_NAMED 1989-12-04 18:00:00 NR 11.1889 144.056 main 1515 1515 O_________P___ jtwc_wp WP351989 11.2000 144.100 25 -1 11.1778 144.012 1 25 18 273
1989335N05162 1989 126 WP MM NOT_NAMED 1989-12-04 21:00:00 NR 11.2086 143.120 main 1533 1504 P_________P___ WP351989 11.2153 143.147 25 -1 11.2019 143.092 1 25 17 270
1989335N05162 1989 126 WP MM NOT_NAMED 1989-12-05 00:00:00 NR 11.2000 142.300 main 1504 1485 O_________O___ jtwc_wp WP351989 11.2000 142.300 25 -1 11.2000 142.300 1 25 14 270
1989335N05162 1989 126 WP MM NOT_NAMED 1989-12-05 03:00:00 NR 11.2012 141.722 main 1485 1471 P_________P___ WP351989 11.2072 141.703 25 -1 11.1953 141.741 1 25 10 269
1989335N05162 1989 126 WP MM NOT_NAMED 1989-12-05 06:00:00 NR 11.1855 141.313 main 1471 1447 O_________P___ jtwc_wp WP351989 11.2000 141.300 25 -1 11.1710 141.325 1 25 7 266
1989335N05162 1989 126 WP MM NOT_NAMED 1989-12-05 09:00:00 NR 11.1469 141.010 main 1447 1439 P_________P___ WP351989 11.1574 140.997 25 -1 11.1364 141.022 1 25 5 260
1989335N05162 1989 126 WP MM NOT_NAMED 1989-12-05 12:00:00 NR 11.1000 140.800 main 1439 1431 O_________O___ jtwc_wp WP351989 11.1000 140.800 25 -1 11.1000 140.800 1 25 4 257
1989335N05162 1989 126 WP MM NOT_NAMED 1989-12-05 15:00:00 NR 11.0545 140.615 main 1431 1416 P_________P___ WP351989 11.0425 140.628 25 -1 11.0666 140.603 1 25 3 255
1989335N05162 1989 126 WP MM NOT_NAMED 1989-12-05 18:00:00 NR 11.0173 140.488 main 1416 1412 O_________P___ jtwc_wp WP351989 11.0000 140.500 25 -1 11.0347 140.475 1 25 2 256
1989335N05162 1989 126 WP MM NOT_NAMED 1989-12-05 21:00:00 NR 10.9977 140.388 main 1412 1408 P_________P___ WP351989 10.9850 140.393 25 -1 11.0104 140.384 1 25 2 265
1989335N05162 1989 126 WP MM NOT_NAMED 1989-12-06 00:00:00 NR 11.0000 140.300 main 1408 1405 O_________O___ jtwc_wp WP351989 11.0000 140.300 25 -1 11.0000 140.300 1 25 2 281
1989335N05162 1989 126 WP MM NOT_NAMED 1989-12-06 03:00:00 NR 11.0343 140.195 main 1405 1405 P_________P___ WP351989 11.0500 140.208 25 -1 11.0187 140.183 1 25 2 289
1989335N05162 1989 126 WP MM NOT_NAMED 1989-12-06 06:00:00 NR 11.0750 140.083 main 1412 1397 O_________P___ jtwc_wp WP351989 11.1000 140.100 25 -1 11.0499 140.065 1 25 2 268
1989335N05162 1989 126 WP MM NOT_NAMED 1989-12-06 09:00:00 TS 11.0275 140.001 main 1397 1390 P_________P___ WP351989 11.1150 139.958 25 -1 11.0812 139.939 1 25 3 248
1989335N05162 1989 126 WP MM NOT_NAMED 1989-12-06 12:00:00 TS 10.9800 139.840 main 1390 1376 O_O_______O___ jtwc_wp WP351989 11.1000 139.800 25 -1 10.5000 140.000 1 29 1002 11.1000 139.800 1 25 3 247
1989335N05162 1989 126 WP MM NOT_NAMED 1989-12-06 15:00:00 TS 10.9143 139.724 main 1376 1376 P_P_______P___ WP351989 11.0500 139.657 25 -1 10.5150 139.975 1 29 1002 11.0894 139.639 1 26 2 235
1989335N05162 1989 126 WP MM NOT_NAMED 1989-12-06 18:00:00 TS 10.8550 139.655 main 1376 1362 O_O_______P___ jtwc_wp WP351989 11.0000 139.500 25 -1 10.5000 140.000 1 29 1002 11.0650 139.465 1 27 2 243
1989335N05162 1989 126 WP MM NOT_NAMED 1989-12-06 21:00:00 TS 10.8293 139.555 main 1362 1355 P_P_______P___ WP351989 11.0000 139.308 27 -1 10.4549 140.075 1 29 1002 11.0331 139.283 1 28 3 265
1989335N05162 1989 126 WP MM NOT_NAMED 1989-12-07 00:00:00 TS 10.8333 139.400 main 1355 1352 O_O_______O___ jtwc_wp WP351989 11.0000 139.100 30 -1 10.5000 140.000 1 29 1002 11.0000 139.100 1 30 4 279
1989335N05162 1989 126 WP MM NOT_NAMED 1989-12-07 03:00:00 TS 10.8943 139.127 main 1356 1350 P_P_______P___ WP351989 10.9500 138.892 30 -1 10.7702 139.575 1 29 1002 10.9628 138.913 1 30 6 284
1989335N05162 1989 126 WP MM NOT_NAMED 1989-12-07 06:00:00 TS 10.9758 138.809 main 1357 1349 O_O_______P___ jtwc_wp WP351989 10.9000 138.700 30 -1 11.1000 139.000 1 29 1002 10.9275 138.727 1 30 6 283
1989335N05162 1989 126 WP MM NOT_NAMED 1989-12-07 09:00:00 TS 11.0320 138.517 main 1349 1339 P_P_______P___ WP351989 10.8850 138.535 30 -1 11.3076 138.462 1 29 1002 10.9035 138.553 1 30 5 283
1989335N05162 1989 126 WP MM NOT_NAMED 1989-12-07 12:00:00 TS 11.1000 138.267 main 1339 1320 O_O_______O___ jtwc_wp WP351989 10.9000 138.400 30 -1 11.5000 138.000 1 29 1002 10.9000 138.400 1 30 5 291
1989335N05162 1989 126 WP MM NOT_NAMED 1989-12-07 15:00:00 TS 11.1922 138.085 main 1320 1301 P_P_______P___ WP351989 10.9425 138.292 30 -1 11.7423 137.712 1 29 1002 10.8919 138.250 1 30 4 297
1989335N05162 1989 126 WP MM NOT_NAMED 1989-12-07 18:00:00 TS 11.2783 137.908 main 1301 1282 O_OO______P___ jtwc_wp WP351989 11.0000 138.200 30 -1 12.0000 137.500 1 29 1002 11.7000 137.100 TD 25 998 10.9100 138.125 1 30 4 299
1989335N05162 1989 126 WP MM NOT_NAMED 1989-12-07 21:00:00 TS 11.3781 137.740 main 1282 1274 P_PP______P___ WP351989 11.0275 138.085 30 -1 12.2526 137.263 1 29 1002 12.0175 136.960 TD 27 996 10.9731 138.038 1 30 4 312
1989335N05162 1989 126 WP MM NOT_NAMED 1989-12-08 00:00:00 TS 11.5167 137.642 main 1274 1274 O_OO______O___ jtwc_wp WP351989 11.1000 138.000 30 -1 12.5000 137.000 1 29 1002 12.3000 136.900 TD 30 995 11.1000 138.000 1 30 3 345
1989335N05162 1989 126 WP MM NOT_NAMED 1989-12-08 03:00:00 NR 11.6932 137.647 main 1278 1278 P__P______P___ WP351989 11.2550 137.963 30 -1 1 12.5225 136.970 TD 30 995 11.3022 138.008 1 30 4 11
1989335N05162 1989 126 WP MM NOT_NAMED 1989-12-08 06:00:00 NR 11.9225 137.723 main 1293 1293 O__O______P___ jtwc_wp WP351989 11.5000 138.000 30 -1 12.7000 137.100 TD 30 995 11.5675 138.068 1 30 5 20
1989335N05162 1989 126 WP MM NOT_NAMED 1989-12-08 09:00:00 NR 12.1888 137.829 main 1311 1311 P__P______P___ WP351989 11.8350 138.120 30 -1 12.8575 137.200 TD 30 995 11.8740 138.168 1 30 6 24
1989335N05162 1989 126 WP MM NOT_NAMED 1989-12-08 12:00:00 NR 12.4667 137.967 main 1339 1339 O__O______O___ jtwc_wp WP351989 12.2000 138.300 30 -1 13.0000 137.300 TD 30 995 12.2000 138.300 1 30 6 27
1989335N05162 1989 126 WP MM NOT_NAMED 1989-12-08 15:00:00 NR 12.7282 138.116 main 1352 1352 P__P______P___ WP351989 12.5000 138.500 30 -1 13.1575 137.393 TD 30 995 12.5272 138.455 1 28 6 30
1989335N05162 1989 126 WP MM NOT_NAMED 1989-12-08 18:00:00 NR 12.9842 138.276 main 1378 1378 O__O______P___ jtwc_wp WP351989 12.8000 138.700 30 -1 13.3000 137.500 TD 30 995 12.8526 138.627 1 27 6 31
1989335N05162 1989 126 WP MM NOT_NAMED 1989-12-08 21:00:00 NR 13.2414 138.438 main 1392 1392 P__P______P___ WP351989 13.1375 138.862 27 -1 13.4100 137.640 TD 27 996 13.1767 138.811 1 26 6 32
1989335N05162 1989 126 WP MM NOT_NAMED 1989-12-09 00:00:00 NR 13.5000 138.600 main 1419 O__O______O___ jtwc_wp WP351989 13.5000 139.000 25 -1 13.5000 137.800 TD 25 998 13.5000 139.000 1 25 6 32

デジタル台風データ・検索

IBTrACS Databaseについて

本データベースは、米国NOAAが公開する1842年以降の世界の熱帯低気圧のベストトラックデータアーカイブInternational Best Track Archive for Climate Stewardship (IBTrACS)を、ウェブで閲覧しやすい形式に変換したものです。

最終更新日:2021-10-21